Adamsburg, Pennsylvania
Current Conditions -  °F | °C
As of 12:53 AM on Thursday 23 Oct 2014 (Local Time) from KAGC Reporting Station
Overcast Overcast  
Wind Chill: 41°   Ceiling: 2500
Heat Index: 46°   Visibility: 10mi
Dew Point: 38°   Wind: 9mph
Humidity: 73%   Direction: 330°NNW
Pressure: 30.13"   Gusts: NA
Location:  40.31°N, 79.66°W
Report Text: KAGC 230453Z AUTO 33008KT 10SM BKN025 OVC043 08/03 A3013 RMK AO2 SLP211 T00780033 401000078 TSNO
Loading
Personal Weather Stations






























Interactive Weather Map
Tropical Storm Tracking
New forecast layout! Learn more

10-Day Weather Forecast

Advertisements
Track Severe Weather on mobile